createdAt,value
2019-02-10T00:01:01.533Z,83.20
2019-02-10T00:03:28.898Z,86.66
2019-02-10T00:05:56.341Z,86.61
2019-02-10T00:08:23.830Z,83.74
2019-02-10T00:10:51.183Z,84.13
2019-02-10T00:13:26.016Z,81.50
2019-02-10T00:15:53.478Z,82.82
2019-02-10T00:18:20.923Z,82.88
2019-02-10T00:20:48.429Z,84.80
2019-02-10T00:23:15.847Z,82.24
2019-02-10T00:25:43.272Z,81.54
2019-02-10T00:28:10.641Z,81.61
2019-02-10T00:30:38.171Z,86.09
2019-02-10T00:33:05.609Z,87.58
2019-02-10T00:35:33.023Z,85.73
2019-02-10T00:38:00.466Z,85.75
2019-02-10T00:40:27.939Z,83.18
2019-02-10T00:42:55.361Z,83.53
2019-02-10T00:45:22.803Z,86.94
2019-02-10T00:47:50.204Z,86.99
2019-02-10T00:50:17.654Z,86.73
2019-02-10T00:52:45.183Z,84.02
2019-02-10T00:55:12.590Z,86.57
2019-02-10T00:57:40.000Z,89.92
2019-02-10T01:00:07.993Z,87.56
2019-02-10T01:02:35.420Z,85.60
2019-02-10T01:05:02.838Z,82.50
2019-02-10T01:07:30.419Z,81.73
2019-02-10T01:09:57.781Z,85.61
2019-02-10T01:12:25.262Z,83.01
2019-02-10T01:14:52.684Z,85.87
2019-02-10T01:17:20.061Z,87.81
2019-02-10T01:19:47.468Z,87.73
2019-02-10T01:22:15.036Z,88.24
2019-02-10T01:24:42.495Z,86.38
2019-02-10T01:27:10.238Z,87.02
2019-02-10T01:29:37.784Z,86.06
2019-02-10T01:32:05.356Z,84.99
2019-02-10T01:34:32.750Z,83.87
2019-02-10T01:37:00.215Z,83.58
2019-02-10T01:39:27.852Z,82.87
2019-02-10T01:41:55.308Z,82.68
2019-02-10T01:44:22.720Z,82.90
2019-02-10T01:46:50.103Z,82.71
2019-02-10T01:49:17.499Z,82.05
2019-02-10T01:51:44.958Z,81.61
2019-02-10T01:54:12.517Z,80.69
2019-02-10T01:56:40.123Z,81.49
2019-02-10T01:59:07.544Z,81.88
2019-02-10T02:01:34.971Z,84.06
2019-02-10T02:04:02.391Z,83.17
2019-02-10T02:06:29.851Z,85.42
2019-02-10T02:08:57.303Z,82.64
2019-02-10T02:11:24.759Z,82.00
2019-02-10T02:13:52.250Z,84.07
2019-02-10T02:16:19.707Z,84.57
2019-02-10T02:18:47.157Z,83.36
2019-02-10T02:21:14.556Z,83.64
2019-02-10T02:23:41.995Z,87.71
2019-02-10T02:26:09.427Z,88.49
2019-02-10T02:28:36.865Z,88.37
2019-02-10T02:31:04.348Z,88.58
2019-02-10T02:33:31.806Z,85.87
2019-02-10T02:35:59.209Z,87.29
2019-02-10T02:38:26.641Z,84.20
2019-02-10T02:40:54.125Z,85.73
2019-02-10T02:43:21.546Z,83.44
2019-02-10T02:45:48.955Z,83.80
2019-02-10T02:48:16.424Z,84.76
2019-02-10T02:50:43.810Z,87.25
2019-02-10T02:53:11.281Z,87.25
2019-02-10T02:55:38.815Z,87.07
2019-02-10T02:58:06.199Z,88.17
2019-02-10T03:00:33.685Z,88.59
2019-02-10T03:03:01.171Z,88.66
2019-02-10T03:05:28.551Z,88.66
2019-02-10T03:07:56.005Z,88.70
2019-02-10T03:10:23.474Z,89.07
2019-02-10T03:12:50.843Z,89.86
2019-02-10T03:15:18.262Z,90.48
2019-02-10T03:17:45.685Z,90.35
2019-02-10T03:20:13.129Z,95.64
2019-02-10T03:22:40.510Z,96.69
2019-02-10T03:25:08.105Z,96.69
2019-02-10T03:27:35.545Z,97.15
2019-02-10T03:30:03.081Z,95.62
2019-02-10T03:32:30.539Z,93.90
2019-02-10T03:34:57.972Z,94.92
2019-02-10T03:37:27.193Z,93.43
2019-02-10T03:39:54.963Z,92.13
2019-02-10T03:42:22.821Z,89.21
2019-02-10T03:44:50.215Z,88.60
2019-02-10T03:47:17.652Z,89.88
2019-02-10T03:49:45.081Z,89.98
2019-02-10T03:52:12.546Z,89.70
2019-02-10T03:54:40.045Z,88.93
2019-02-10T03:57:07.606Z,89.13
2019-02-10T03:59:35.064Z,88.30
2019-02-10T04:02:02.456Z,87.59
2019-02-10T04:04:30.285Z,92.49
2019-02-10T04:06:57.750Z,89.00
2019-02-10T04:09:25.117Z,89.35
2019-02-10T04:11:52.573Z,84.91
2019-02-10T04:14:20.027Z,82.86
2019-02-10T04:16:47.406Z,88.55
2019-02-10T04:19:14.829Z,87.16
2019-02-10T04:21:42.249Z,84.91
2019-02-10T04:24:09.745Z,84.81
2019-02-10T04:26:37.188Z,87.83
2019-02-10T04:29:05.859Z,88.30
2019-02-10T04:31:33.317Z,88.35
2019-02-10T04:34:00.798Z,89.29
2019-02-10T04:36:28.222Z,86.02
2019-02-10T04:38:55.808Z,86.12
2019-02-10T04:41:23.374Z,85.99
2019-02-10T04:43:50.840Z,89.32
2019-02-10T04:46:18.452Z,91.43
2019-02-10T04:48:45.863Z,92.00
2019-02-10T04:51:13.301Z,85.62
2019-02-10T04:53:40.750Z,85.84
2019-02-10T04:56:15.618Z,88.07
2019-02-10T04:58:43.174Z,90.94
2019-02-10T05:01:10.627Z,91.94
2019-02-10T05:03:38.203Z,90.22
2019-02-10T05:06:05.564Z,91.53
2019-02-10T05:08:33.004Z,91.57
2019-02-10T05:11:00.465Z,87.26
2019-02-10T05:13:27.832Z,84.99
2019-02-10T05:15:55.269Z,81.79
2019-02-10T05:18:23.249Z,84.70
2019-02-10T05:20:50.670Z,85.08
2019-02-10T05:23:18.202Z,85.54
2019-02-10T05:25:45.667Z,86.87
2019-02-10T05:28:13.091Z,86.53
2019-02-10T05:30:40.510Z,85.86
2019-02-10T05:33:07.964Z,90.28
2019-02-10T05:35:35.412Z,90.28
2019-02-10T05:38:04.481Z,88.81
2019-02-10T05:40:32.312Z,88.58
2019-02-10T05:42:59.791Z,89.55
2019-02-10T05:45:27.230Z,90.45
2019-02-10T05:47:54.676Z,91.30
2019-02-10T05:50:22.152Z,91.77
2019-02-10T05:52:49.523Z,84.29
2019-02-10T05:55:17.059Z,82.05
2019-02-10T05:57:44.535Z,83.89
2019-02-10T06:00:12.173Z,86.09
2019-02-10T06:02:39.597Z,88.61
2019-02-10T06:05:19.273Z,86.32
2019-02-10T06:07:46.766Z,81.37
2019-02-10T06:10:14.243Z,80.38
2019-02-10T06:12:41.832Z,81.12
2019-02-10T06:15:09.692Z,83.41
2019-02-10T06:17:37.270Z,81.79
2019-02-10T06:20:05.306Z,86.22
2019-02-10T06:22:32.735Z,86.60
2019-02-10T06:25:00.256Z,83.10
2019-02-10T06:27:27.749Z,83.91
2019-02-10T06:29:55.287Z,86.11
2019-02-10T06:32:22.765Z,83.61
2019-02-10T06:34:50.158Z,80.75
2019-02-10T06:37:17.609Z,79.40
2019-02-10T06:39:45.314Z,78.95
2019-02-10T06:42:13.016Z,76.88
2019-02-10T06:44:40.503Z,80.07
2019-02-10T06:47:07.857Z,82.34
2019-02-10T06:49:35.306Z,80.90
2019-02-10T06:52:02.769Z,76.47
2019-02-10T06:54:30.149Z,80.57
2019-02-10T06:56:57.607Z,76.77
2019-02-10T06:59:53.211Z,75.62
2019-02-10T07:02:39.857Z,77.72
2019-02-10T07:05:08.956Z,76.58
2019-02-10T07:07:36.423Z,78.32
2019-02-10T07:10:04.878Z,81.46
2019-02-10T07:12:48.930Z,79.25
2019-02-10T07:15:52.936Z,78.34
2019-02-10T07:18:57.142Z,81.44
2019-02-10T07:21:28.766Z,80.49
2019-02-10T07:23:58.913Z,77.75
2019-02-10T07:27:09.797Z,76.36
2019-02-10T07:30:33.554Z,77.22
2019-02-10T07:33:03.978Z,77.29
2019-02-10T07:36:20.787Z,80.29
2019-02-10T07:39:32.119Z,78.92
2019-02-10T07:42:25.687Z,75.92
2019-02-10T07:45:25.549Z,75.42
2019-02-10T07:48:10.059Z,78.19
2019-02-10T07:51:10.594Z,78.22
2019-02-10T07:54:10.328Z,73.68
2019-02-10T07:57:05.614Z,73.71
2019-02-10T08:00:00.740Z,72.90
2019-02-10T08:03:09.532Z,72.19
2019-02-10T08:06:02.068Z,73.32
2019-02-10T08:09:01.429Z,72.52
2019-02-10T08:11:48.041Z,70.48
2019-02-10T08:14:53.408Z,68.51
2019-02-10T08:17:53.625Z,68.50
2019-02-10T08:20:56.260Z,66.72
2019-02-10T08:24:00.692Z,68.16
2019-02-10T08:27:27.921Z,66.72
2019-02-10T08:30:38.767Z,66.15
2019-02-10T08:33:43.079Z,66.15
2019-02-10T08:36:55.445Z,66.30
2019-02-10T08:39:46.190Z,65.80
2019-02-10T08:42:40.769Z,63.81
2019-02-10T08:45:24.591Z,65.25
2019-02-10T08:48:26.683Z,61.02
2019-02-10T08:51:43.656Z,61.70
2019-02-10T08:54:11.634Z,62.59
2019-02-10T08:56:39.111Z,61.33
2019-02-10T08:59:06.554Z,62.82
2019-02-10T09:01:34.019Z,60.99
2019-02-10T09:04:01.591Z,61.28
2019-02-10T09:06:29.568Z,62.46
2019-02-10T09:09:02.412Z,62.05
2019-02-10T09:11:26.439Z,60.94
2019-02-10T09:13:53.878Z,62.13
2019-02-10T09:16:21.320Z,57.28
2019-02-10T09:18:48.673Z,57.65
2019-02-10T09:21:16.129Z,58.11
2019-02-10T09:23:43.602Z,57.02
2019-02-10T09:26:11.087Z,57.30
2019-02-10T09:28:38.566Z,59.17
2019-02-10T09:31:05.949Z,58.55
2019-02-10T09:33:33.416Z,56.30
2019-02-10T09:36:00.900Z,56.90
2019-02-10T09:38:28.329Z,55.90
2019-02-10T09:40:55.772Z,55.40
2019-02-10T09:43:23.205Z,54.55
2019-02-10T09:45:50.737Z,53.78
2019-02-10T09:48:18.165Z,51.92
2019-02-10T09:50:45.634Z,52.13
2019-02-10T09:53:13.077Z,51.01
2019-02-10T09:55:40.540Z,50.51
2019-02-10T09:58:07.971Z,50.99
2019-02-10T10:00:35.460Z,52.12
2019-02-10T10:03:02.871Z,51.17
2019-02-10T10:05:30.343Z,50.86
2019-02-10T10:07:57.888Z,51.54
2019-02-10T10:10:25.344Z,49.95
2019-02-10T10:12:52.896Z,48.90
2019-02-10T10:15:20.340Z,48.87
2019-02-10T10:17:47.869Z,49.08
2019-02-10T10:20:15.656Z,48.58
2019-02-10T10:22:43.086Z,49.26
2019-02-10T10:25:10.651Z,48.92
2019-02-10T10:27:38.097Z,47.93
2019-02-10T10:30:07.745Z,48.15
2019-02-10T10:32:35.236Z,48.34
2019-02-10T10:35:02.816Z,48.47
2019-02-10T10:37:30.396Z,47.65
2019-02-10T10:39:57.845Z,47.48
2019-02-10T10:42:25.428Z,48.20
2019-02-10T10:44:52.929Z,47.71
2019-02-10T10:47:20.377Z,47.61
2019-02-10T10:49:47.883Z,47.32
2019-02-10T10:52:15.281Z,47.55
2019-02-10T10:54:43.116Z,47.31
2019-02-10T10:57:10.693Z,46.31
2019-02-10T10:59:38.229Z,46.36
2019-02-10T11:02:05.693Z,45.83
2019-02-10T11:04:33.165Z,46.32
2019-02-10T11:07:00.610Z,46.74
2019-02-10T11:09:35.463Z,46.54
2019-02-10T11:11:57.490Z,44.49
2019-02-10T11:14:25.062Z,44.46
2019-02-10T11:16:52.475Z,44.12
2019-02-10T11:19:19.966Z,44.25
2019-02-10T11:21:47.424Z,44.25
2019-02-10T11:24:14.875Z,44.55
2019-02-10T11:26:42.307Z,44.01
2019-02-10T11:29:09.811Z,44.14
2019-02-10T11:31:37.264Z,43.73
2019-02-10T11:34:04.687Z,43.41
2019-02-10T11:36:32.131Z,40.94
2019-02-10T11:38:59.610Z,40.22
2019-02-10T11:41:27.163Z,39.25
2019-02-10T11:43:54.742Z,38.62
2019-02-10T11:46:22.268Z,38.40
2019-02-10T11:48:49.748Z,38.34
2019-02-10T11:51:17.242Z,38.42
2019-02-10T11:53:44.732Z,38.32
2019-02-10T11:56:12.221Z,37.17
2019-02-10T11:58:39.834Z,37.13
2019-02-10T12:01:07.298Z,37.57
2019-02-10T12:03:35.215Z,37.05
2019-02-10T12:06:02.683Z,37.52
2019-02-10T12:08:35.590Z,36.60
2019-02-10T12:10:59.846Z,36.95
2019-02-10T12:13:27.312Z,36.98
2019-02-10T12:15:54.817Z,38.10
2019-02-10T12:18:22.416Z,38.17
2019-02-10T12:20:52.320Z,37.64
2019-02-10T12:23:19.824Z,37.66
2019-02-10T12:25:47.323Z,36.92
2019-02-10T12:28:14.924Z,36.82
2019-02-10T12:30:42.455Z,37.20
2019-02-10T12:33:09.923Z,36.25
2019-02-10T12:35:38.735Z,36.85
2019-02-10T12:38:06.254Z,37.34
2019-02-10T12:40:33.738Z,36.84
2019-02-10T12:43:01.191Z,34.93
2019-02-10T12:45:30.029Z,34.65
2019-02-10T12:47:58.373Z,33.19
2019-02-10T12:50:27.037Z,33.33
2019-02-10T12:52:54.484Z,33.81
2019-02-10T12:55:22.881Z,33.73
2019-02-10T12:57:52.338Z,33.60
2019-02-10T13:00:19.934Z,33.64
2019-02-10T13:02:47.596Z,34.73
2019-02-10T13:05:15.237Z,33.78
2019-02-10T13:07:42.849Z,33.60
2019-02-10T13:10:11.849Z,32.93
2019-02-10T13:12:39.516Z,32.91
2019-02-10T13:15:08.248Z,33.69
2019-02-10T13:17:35.730Z,33.88
2019-02-10T13:20:04.011Z,34.85
2019-02-10T13:22:31.467Z,34.87
2019-02-10T13:24:58.953Z,34.92
2019-02-10T13:27:26.451Z,34.86
2019-02-10T13:29:54.032Z,35.15
2019-02-10T13:32:21.576Z,35.06
2019-02-10T13:34:49.040Z,35.19
2019-02-10T13:37:19.246Z,35.08
2019-02-10T13:39:47.013Z,34.73
2019-02-10T13:42:14.560Z,34.82
2019-02-10T13:44:42.379Z,35.23
2019-02-10T13:47:09.867Z,34.64
2019-02-10T13:49:37.447Z,35.15
2019-02-10T13:52:04.886Z,35.29
2019-02-10T13:54:32.421Z,35.57
2019-02-10T13:56:59.975Z,35.56
2019-02-10T13:59:27.561Z,35.30
2019-02-10T14:01:55.132Z,35.20
2019-02-10T14:04:22.779Z,35.23
2019-02-10T14:06:50.266Z,35.47
2019-02-10T14:09:17.870Z,35.87
2019-02-10T14:11:45.331Z,35.68
2019-02-10T14:14:12.939Z,36.11
2019-02-10T14:16:40.411Z,36.24
2019-02-10T14:19:08.050Z,36.60
2019-02-10T14:21:35.526Z,36.05
2019-02-10T14:24:02.981Z,36.35
2019-02-10T14:26:30.511Z,35.91
2019-02-10T14:28:57.958Z,36.00
2019-02-10T14:31:25.463Z,35.17
2019-02-10T14:33:52.951Z,35.18
2019-02-10T14:36:20.475Z,35.03
2019-02-10T14:38:47.906Z,35.40
2019-02-10T14:41:15.381Z,34.80
2019-02-10T14:43:42.934Z,35.25
2019-02-10T14:46:10.498Z,35.68
2019-02-10T14:48:37.904Z,36.22
2019-02-10T14:51:05.371Z,36.56
2019-02-10T14:53:32.871Z,37.17
2019-02-10T14:56:00.312Z,37.25
2019-02-10T14:58:27.815Z,37.42
2019-02-10T15:00:55.291Z,37.69
2019-02-10T15:03:22.815Z,37.93
2019-02-10T15:05:50.275Z,37.97
2019-02-10T15:08:17.716Z,38.13
2019-02-10T15:10:45.397Z,38.17
2019-02-10T15:13:13.151Z,38.27
2019-02-10T15:15:40.662Z,38.66
2019-02-10T15:18:08.146Z,38.79
2019-02-10T15:20:35.629Z,38.98
2019-02-10T15:23:03.131Z,39.18
2019-02-10T15:25:30.653Z,39.46
2019-02-10T15:27:58.030Z,39.71
2019-02-10T15:30:25.476Z,39.42
2019-02-10T15:32:52.934Z,39.72
2019-02-10T15:35:20.303Z,39.81
2019-02-10T15:37:47.999Z,40.17
2019-02-10T15:40:15.456Z,40.18
2019-02-10T15:42:43.473Z,40.70
2019-02-10T15:45:11.238Z,40.54
2019-02-10T15:47:38.879Z,40.78
2019-02-10T15:50:07.406Z,41.11
2019-02-10T15:52:34.928Z,41.00
2019-02-10T15:55:02.416Z,41.55
2019-02-10T15:57:29.866Z,41.85
2019-02-10T15:59:57.353Z,42.23
2019-02-10T16:02:24.941Z,42.75
2019-02-10T16:04:52.440Z,42.67
2019-02-10T16:07:19.911Z,42.56
2019-02-10T16:09:47.546Z,43.08
2019-02-10T16:12:15.116Z,43.03
2019-02-10T16:14:42.543Z,42.90
2019-02-10T16:17:09.994Z,43.05
2019-02-10T16:19:37.451Z,42.84
2019-02-10T16:22:05.150Z,43.35
2019-02-10T16:24:32.600Z,42.90
2019-02-10T16:27:00.390Z,43.29
2019-02-10T16:29:28.429Z,43.85
2019-02-10T16:31:55.993Z,43.88
2019-02-10T16:34:23.479Z,44.64
2019-02-10T16:36:51.058Z,45.35
2019-02-10T16:39:18.413Z,45.93
2019-02-10T16:41:45.891Z,46.09
2019-02-10T16:44:13.386Z,46.30
2019-02-10T16:46:40.843Z,47.76
2019-02-10T16:49:08.540Z,48.71
2019-02-10T16:51:36.106Z,48.72
2019-02-10T16:54:03.484Z,48.31
2019-02-10T16:56:30.974Z,48.49
2019-02-10T16:58:58.901Z,49.26
2019-02-10T17:01:26.382Z,49.31
2019-02-10T17:03:53.840Z,49.38
2019-02-10T17:06:21.288Z,49.65
2019-02-10T17:08:48.767Z,50.61
2019-02-10T17:11:16.276Z,49.45
2019-02-10T17:13:43.706Z,49.95
2019-02-10T17:16:11.203Z,49.49
2019-02-10T17:18:38.612Z,49.68
2019-02-10T17:21:06.083Z,50.94
2019-02-10T17:23:34.083Z,50.24
2019-02-10T17:26:01.724Z,49.79
2019-02-10T17:28:29.119Z,49.79
2019-02-10T17:30:56.548Z,49.83
2019-02-10T17:33:23.969Z,49.34
2019-02-10T17:35:51.461Z,48.77
2019-02-10T17:38:18.931Z,48.68
2019-02-10T17:40:52.884Z,48.58
2019-02-10T17:43:27.993Z,48.88
2019-02-10T17:45:50.088Z,49.31
2019-02-10T17:48:17.514Z,49.35
2019-02-10T17:50:45.086Z,49.69
2019-02-10T17:53:12.610Z,50.45
2019-02-10T17:55:40.074Z,50.53
2019-02-10T17:58:07.669Z,50.55
2019-02-10T18:00:39.422Z,50.40
2019-02-10T18:03:07.110Z,50.57
2019-02-10T18:05:35.390Z,50.61
2019-02-10T18:08:02.910Z,50.58
2019-02-10T18:10:30.856Z,50.74
2019-02-10T18:12:58.388Z,50.26
2019-02-10T18:15:54.501Z,51.70
2019-02-10T18:18:28.107Z,51.87
2019-02-10T18:21:08.369Z,53.95
2019-02-10T18:24:00.913Z,53.29
2019-02-10T18:26:47.979Z,53.87
2019-02-10T18:29:36.443Z,55.15
2019-02-10T18:32:19.956Z,57.05
2019-02-10T18:35:05.504Z,57.75
2019-02-10T18:38:07.942Z,57.81
2019-02-10T18:40:49.031Z,58.14
2019-02-10T18:43:39.093Z,58.52
2019-02-10T18:46:19.895Z,58.54
2019-02-10T18:49:07.211Z,58.34
2019-02-10T18:52:03.144Z,58.32
2019-02-10T18:54:50.161Z,58.79
2019-02-10T18:57:25.360Z,58.49
2019-02-10T19:00:24.445Z,58.13
2019-02-10T19:03:20.054Z,57.33
2019-02-10T19:06:19.144Z,58.37
2019-02-10T19:09:03.780Z,58.09
2019-02-10T19:11:36.024Z,58.76
2019-02-10T19:14:23.060Z,57.71
2019-02-10T19:17:10.038Z,56.12
2019-02-10T19:20:15.352Z,56.67
2019-02-10T19:23:00.772Z,59.41
2019-02-10T19:25:34.595Z,62.35
2019-02-10T19:28:20.405Z,59.04
2019-02-10T19:30:53.964Z,57.20
2019-02-10T19:33:46.966Z,57.54
2019-02-10T19:36:32.447Z,58.21
2019-02-10T19:39:21.486Z,58.91
2019-02-10T19:42:01.093Z,59.38
2019-02-10T19:44:49.044Z,59.86
2019-02-10T19:47:39.155Z,60.54
2019-02-10T19:50:29.323Z,60.64
2019-02-10T19:53:15.010Z,61.28
2019-02-10T19:55:51.003Z,61.63
2019-02-10T19:58:40.775Z,62.10
2019-02-10T20:01:28.151Z,62.39
2019-02-10T20:04:19.892Z,63.14
2019-02-10T20:07:06.958Z,63.59
2019-02-10T20:09:44.525Z,63.93
2019-02-10T20:12:43.854Z,64.29
2019-02-10T20:15:39.959Z,64.46
2019-02-10T20:18:29.941Z,64.68
2019-02-10T20:21:16.942Z,65.28
2019-02-10T20:23:51.266Z,65.57
2019-02-10T20:26:49.566Z,65.69
2019-02-10T20:29:22.731Z,65.21
2019-02-10T20:32:15.913Z,65.53
2019-02-10T20:35:09.050Z,65.86
2019-02-10T20:38:02.188Z,66.08
2019-02-10T20:40:49.165Z,66.10
2019-02-10T20:43:45.437Z,67.48
2019-02-10T20:46:21.632Z,66.53
2019-02-10T20:49:08.582Z,65.58
2019-02-10T20:51:44.577Z,67.07
2019-02-10T20:54:30.392Z,67.89
2019-02-10T20:57:16.048Z,67.75
2019-02-10T20:59:57.291Z,67.73
2019-02-10T21:02:47.000Z,66.86
2019-02-10T21:05:36.113Z,66.79
2019-02-10T21:08:30.188Z,66.81
2019-02-10T21:11:28.926Z,67.28
2019-02-10T21:14:21.792Z,68.25
2019-02-10T21:17:11.283Z,68.82
2019-02-10T21:20:01.271Z,68.58
2019-02-10T21:22:39.808Z,69.24
2019-02-10T21:25:25.026Z,69.86
2019-02-10T21:28:08.005Z,69.84
2019-02-10T21:30:53.806Z,70.72
2019-02-10T21:33:49.540Z,71.40
2019-02-10T21:36:28.554Z,72.27
2019-02-10T21:39:14.633Z,71.42
2019-02-10T21:41:52.416Z,70.40
2019-02-10T21:44:26.524Z,70.66
2019-02-10T21:47:16.591Z,72.75
2019-02-10T21:49:44.141Z,71.75
2019-02-10T21:52:11.588Z,71.33
2019-02-10T21:54:39.128Z,71.89
2019-02-10T21:57:07.073Z,72.35
2019-02-10T21:59:34.613Z,73.09
2019-02-10T22:02:02.054Z,72.59
2019-02-10T22:04:29.500Z,73.23
2019-02-10T22:06:56.914Z,77.05
2019-02-10T22:09:24.439Z,75.85
2019-02-10T22:11:51.880Z,75.52
2019-02-10T22:14:19.294Z,74.61
2019-02-10T22:16:46.775Z,76.34
2019-02-10T22:19:14.228Z,77.20
2019-02-10T22:21:41.613Z,77.15
2019-02-10T22:24:09.071Z,75.40
2019-02-10T22:26:36.496Z,77.32
2019-02-10T22:29:03.895Z,77.90
2019-02-10T22:31:31.300Z,78.69
2019-02-10T22:33:58.725Z,78.87
2019-02-10T22:36:26.165Z,76.69
2019-02-10T22:38:53.589Z,75.44
2019-02-10T22:41:20.994Z,76.85
2019-02-10T22:43:48.422Z,76.50
2019-02-10T22:46:15.857Z,76.83
2019-02-10T22:48:43.423Z,75.59
2019-02-10T22:51:10.937Z,76.21
2019-02-10T22:53:38.320Z,74.92
2019-02-10T22:56:05.736Z,74.76
2019-02-10T22:58:33.163Z,78.13
2019-02-10T23:01:04.456Z,77.90
2019-02-10T23:03:31.930Z,78.45
2019-02-10T23:05:59.461Z,76.21
2019-02-10T23:08:26.821Z,73.56
2019-02-10T23:10:54.322Z,74.70
2019-02-10T23:13:21.753Z,77.73
2019-02-10T23:15:49.108Z,75.04
2019-02-10T23:18:16.507Z,79.95
2019-02-10T23:20:43.907Z,76.47
2019-02-10T23:23:11.298Z,76.07
2019-02-10T23:25:38.718Z,76.40
2019-02-10T23:28:06.158Z,77.19
2019-02-10T23:30:33.497Z,78.67
2019-02-10T23:33:00.915Z,78.20
2019-02-10T23:35:28.428Z,78.39
2019-02-10T23:37:55.833Z,78.84
2019-02-10T23:40:23.241Z,79.86
2019-02-10T23:42:50.576Z,80.43
2019-02-10T23:45:18.091Z,83.62
2019-02-10T23:47:45.507Z,85.79
2019-02-10T23:50:12.982Z,82.08
2019-02-10T23:52:40.441Z,80.44
2019-02-10T23:55:07.965Z,83.68
2019-02-10T23:57:35.409Z,80.59
